Terminal Aerodrome Forecast
Issued by NWS

Home | Current Version | Previous Version | Text Only | Print | Product List | Glossary On
Versions: 1 2 3 4 5 6 7 8 9 10 11 12 13 14
000
FTUS45 KREV 291100
TAFMMH
TAF
KMMH 291120Z 2912/3012 VRB06KT P6SM VCSH SCT090 BKN140
     FM291800 12009KT P6SM VCSH SCT040 BKN070
     FM300200 30007KT P6SM SCT070 SCT120
      AMD NOT SKED TIL 291400=

USA.gov is the U.S. government's official web portal to all federal, state and local government web resources and services.